Time;durP1;ratioP1;P1;durP2;ratioP2;P2;SDS_P1;SDS_P2;PMS_P1;PMS_P2;Temp;Humidity;BMP_temperature;BMP_pressure;BME280_temperature;BME280_humidity;BME280_pressure;Samples;Min_cycle;Max_cycle;Signal;HPM_P1;HPM_P2
2022/02/03 00:05:11;;;;;;;28.75;14.57;;;9.20;99.90;;;;;;5114887;28;20080;-73
2022/02/03 00:24:49;;;;;;;34.13;13.13;;;9.20;99.90;;;;;;5112793;28;20105;-74
2022/02/03 00:27:38;;;;;;;26.67;13.45;;;9.20;99.90;;;;;;5112686;28;20460;-74
2022/02/03 00:30:10;;;;;;;29.83;14.60;;;9.20;99.90;;;;;;5112661;28;20043;-75
2022/02/03 00:35:38;;;;;;;28.20;14.40;;;9.20;99.90;;;;;;5112633;28;20035;-74
2022/02/03 00:49:13;;;;;;;30.55;16.77;;;9.10;99.90;;;;;;5112762;28;20104;-74
2022/02/03 00:51:44;;;;;;;28.02;16.95;;;9.20;99.90;;;;;;5112653;28;20039;-74
2022/02/03 00:54:11;;;;;;;31.42;16.35;;;9.20;99.90;;;;;;5112818;28;20039;-75
2022/02/03 00:56:53;;;;;;;36.28;17.05;;;9.20;99.90;;;;;;5113641;28;20028;-74
2022/02/03 00:59:28;;;;;;;34.70;16.45;;;9.20;99.90;;;;;;5111909;28;20451;-75
2022/02/03 01:01:58;;;;;;;32.53;18.25;;;9.10;99.90;;;;;;5112991;28;20043;-74
2022/02/03 01:04:28;;;;;;;35.42;20.25;;;9.10;99.90;;;;;;5112805;28;20027;-74
2022/02/03 01:06:57;;;;;;;31.17;18.23;;;9.20;99.90;;;;;;5112504;28;20081;-74
2022/02/03 01:09:25;;;;;;;37.38;19.20;;;9.20;99.90;;;;;;5112730;28;20028;-74
2022/02/03 01:17:53;;;;;;;31.50;19.75;;;9.20;99.90;;;;;;5112627;28;20026;-75
2022/02/03 01:20:55;;;;;;;34.78;21.65;;;9.20;99.90;;;;;;5113940;28;20040;-75
2022/02/03 01:37:36;;;;;;;42.88;22.67;;;9.20;99.90;;;;;;5118148;28;20040;-75
2022/02/03 01:48:21;;;;;;;39.55;25.52;;;9.20;99.90;;;;;;5116323;28;20067;-75
2022/02/03 01:53:34;;;;;;;42.47;25.42;;;9.20;99.90;;;;;;5116417;28;20035;-74
2022/02/03 01:56:22;;;;;;;39.78;23.77;;;9.20;99.90;;;;;;5115159;28;20482;-74
2022/02/03 01:58:54;;;;;;;41.72;24.05;;;9.20;99.90;;;;;;5115898;28;20145;-74
2022/02/03 02:01:26;;;;;;;41.13;23.58;;;9.20;99.90;;;;;;5114717;28;20483;-74
2022/02/03 02:04:03;;;;;;;48.72;24.42;;;9.20;99.90;;;;;;5115755;28;20032;-74
2022/02/03 02:07:18;;;;;;;37.45;21.88;;;9.20;99.90;;;;;;5115834;28;20079;-74
2022/02/03 02:13:29;;;;;;;42.92;23.00;;;9.20;99.90;;;;;;5116366;28;20045;-74
2022/02/03 02:38:54;;;;;;;30.35;17.35;;;9.00;99.90;;;;;;5114664;28;20081;-74
2022/02/03 02:43:17;;;;;;;26.33;16.48;;;9.00;99.90;;;;;;5114438;28;20039;-74
2022/02/03 02:46:07;;;;;;;23.15;15.43;;;9.00;99.90;;;;;;5115314;28;20031;-75
2022/02/03 02:49:11;;;;;;;26.92;16.17;;;9.00;99.90;;;;;;5115604;28;20024;-73
2022/02/03 02:51:43;;;;;;;30.75;15.20;;;9.00;99.90;;;;;;5114661;28;20023;-74
2022/02/03 02:57:21;;;;;;;23.90;14.27;;;9.00;99.90;;;;;;5115037;28;20055;-73
2022/02/03 03:30:15;;;;;;;23.02;11.63;;;8.90;99.90;;;;;;5135277;27;20056;-75
2022/02/03 03:35:43;;;;;;;24.40;12.38;;;8.90;99.90;;;;;;5134943;27;20030;-73
2022/02/03 03:38:10;;;;;;;17.40;11.07;;;8.90;99.90;;;;;;5134358;27;20031;-73
2022/02/03 03:40:40;;;;;;;16.67;11.52;;;8.90;99.90;;;;;;5134645;27;20038;-77
2022/02/03 03:43:12;;;;;;;14.50;10.75;;;8.90;99.90;;;;;;5135047;27;20034;-75
2022/02/03 03:45:51;;;;;;;16.38;10.07;;;8.90;99.90;;;;;;5134531;27;20027;-75
2022/02/03 03:48:19;;;;;;;22.80;10.88;;;8.90;99.90;;;;;;5133942;27;20390;-74
2022/02/03 03:50:52;;;;;;;12.88;9.02;;;8.80;99.90;;;;;;5134834;27;20034;-75
2022/02/03 03:53:32;;;;;;;17.63;9.88;;;8.90;99.90;;;;;;5132910;27;20027;-74
2022/02/03 04:37:33;;;;;;;11.23;5.00;;;8.80;99.90;;;;;;5132803;27;20382;-75
2022/02/03 05:07:28;;;;;;;6.78;3.55;;;8.80;99.90;;;;;;5101358;27;20122;-76
2022/02/03 05:19:09;;;;;;;7.70;4.03;;;8.70;99.90;;;;;;5133518;28;20031;-76
2022/02/03 06:02:42;;;;;;;12.93;2.90;;;8.70;99.90;;;;;;5131492;27;20077;-76
2022/02/03 06:05:14;;;;;;;8.98;3.10;;;8.70;99.90;;;;;;5132540;28;20038;-76
2022/02/03 06:15:26;;;;;;;8.07;3.00;;;8.60;99.90;;;;;;5132095;27;20454;-77
2022/02/03 06:21:28;;;;;;;10.20;3.30;;;8.70;99.90;;;;;;5136872;27;20038;-77
2022/02/03 06:23:53;;;;;;;6.97;2.70;;;8.60;99.90;;;;;;5133685;27;20045;-77
2022/02/03 06:29:11;;;;;;;;;;;8.60;99.90;;;;;;5135808;27;20385;-76
2022/02/03 06:31:38;;;;;;;6.75;3.17;;;8.60;99.90;;;;;;5135797;27;19947;-77
2022/02/03 06:34:04;;;;;;;9.70;3.00;;;8.60;99.90;;;;;;5136248;27;20027;-77
2022/02/03 06:36:30;;;;;;;8.57;3.30;;;8.60;99.90;;;;;;5135192;27;20019;-77
2022/02/03 06:38:56;;;;;;;10.52;4.13;;;8.60;99.90;;;;;;5137331;27;20394;-74
2022/02/03 06:41:21;;;;;;;10.85;3.53;;;8.60;99.90;;;;;;5136580;27;20023;-76
2022/02/03 06:43:47;;;;;;;11.07;3.85;;;8.70;99.90;;;;;;5136681;27;20015;-76
2022/02/03 06:46:13;;;;;;;14.02;4.13;;;8.70;99.90;;;;;;5136379;27;20034;-77
2022/02/03 06:48:41;;;;;;;8.55;3.80;;;8.60;99.90;;;;;;5135925;27;20072;-77
2022/02/03 06:51:14;;;;;;;9.27;3.80;;;8.50;99.90;;;;;;5135604;27;20034;-75
2022/02/03 06:53:43;;;;;;;8.63;4.13;;;8.60;99.90;;;;;;5136780;27;20027;-75
2022/02/03 06:56:14;;;;;;;9.82;3.72;;;8.60;99.90;;;;;;5135502;27;20034;-76
2022/02/03 06:58:49;;;;;;;7.97;4.75;;;8.60;99.90;;;;;;5104902;27;20019;-75
2022/02/03 07:01:23;;;;;;;7.88;4.03;;;8.60;99.90;;;;;;5113282;27;20028;-77
2022/02/03 07:03:55;;;;;;;8.38;5.03;;;8.50;99.90;;;;;;5112531;28;20020;-76
2022/02/03 07:06:24;;;;;;;10.55;5.30;;;8.50;99.90;;;;;;5112848;27;20406;-76
2022/02/03 07:08:51;;;;;;;16.98;5.57;;;8.50;99.90;;;;;;5112974;27;20028;-75
2022/02/03 07:11:19;;;;;;;10.48;5.35;;;8.50;99.90;;;;;;5112010;27;20441;-76
2022/02/03 07:13:46;;;;;;;10.63;5.88;;;8.50;99.90;;;;;;5113499;28;20020;-76
2022/02/03 07:16:11;;;;;;;10.20;5.30;;;8.50;99.90;;;;;;5112954;27;20020;-76
2022/02/03 07:18:37;;;;;;;8.68;5.00;;;8.50;99.90;;;;;;5115173;27;20081;-75
2022/02/03 07:21:03;;;;;;;11.00;5.75;;;8.50;99.90;;;;;;5113050;28;20033;-76
2022/02/03 07:23:28;;;;;;;13.93;5.82;;;8.50;99.90;;;;;;5112694;27;20030;-76
2022/02/03 07:25:54;;;;;;;7.68;5.35;;;8.50;99.90;;;;;;5112074;28;20073;-76
2022/02/03 07:28:19;;;;;;;16.70;6.60;;;8.50;99.90;;;;;;5112359;27;20118;-76
2022/02/03 07:30:45;;;;;;;8.57;5.70;;;8.50;99.90;;;;;;5113092;28;20019;-77
2022/02/03 07:33:12;;;;;;;10.60;6.30;;;8.50;99.90;;;;;;5111957;27;20027;-75
2022/02/03 07:35:37;;;;;;;10.27;7.13;;;8.50;99.90;;;;;;5112871;28;20095;-76
2022/02/03 07:38:06;;;;;;;14.82;7.38;;;8.50;99.90;;;;;;5112686;27;20463;-76
2022/02/03 07:40:33;;;;;;;8.65;7.70;;;8.50;99.90;;;;;;5111941;28;20019;-76
2022/02/03 07:43:02;;;;;;;13.82;8.20;;;8.50;99.90;;;;;;5112498;27;20028;-74
2022/02/03 07:45:27;;;;;;;13.18;8.55;;;8.50;99.90;;;;;;5110702;27;20028;-77
2022/02/03 07:47:54;;;;;;;10.70;8.30;;;8.50;99.90;;;;;;5111030;28;20035;-74
2022/02/03 07:50:20;;;;;;;12.38;8.10;;;8.50;99.90;;;;;;5113211;28;20644;-76
2022/02/03 07:52:46;;;;;;;18.05;9.48;;;8.50;99.90;;;;;;5112396;28;20430;-76
2022/02/03 07:55:13;;;;;;;12.10;7.95;;;8.50;99.90;;;;;;5115649;27;20112;-76
2022/02/03 07:57:46;;;;;;;20.40;9.45;;;8.50;99.90;;;;;;5112730;28;20024;-76
2022/02/03 08:00:17;;;;;;;13.02;9.55;;;8.50;99.90;;;;;;5113153;28;20023;-75
2022/02/03 08:02:43;;;;;;;14.00;9.80;;;8.50;99.90;;;;;;5130807;27;20035;-75
2022/02/03 08:05:12;;;;;;;16.33;9.38;;;8.50;99.90;;;;;;5132961;27;20035;-77
2022/02/03 08:08:06;;;;;;;12.70;10.60;;;8.50;99.90;;;;;;5120469;27;20032;-75
2022/02/03 08:10:42;;;;;;;19.42;10.48;;;8.40;99.90;;;;;;5133090;27;20031;-76
2022/02/03 08:13:12;;;;;;;18.80;11.13;;;8.40;99.90;;;;;;5132677;27;20015;-76
2022/02/03 08:15:40;;;;;;;15.20;9.30;;;8.30;99.90;;;;;;5114550;27;20102;-76
2022/02/03 08:18:10;;;;;;;16.90;10.32;;;8.40;99.90;;;;;;5112519;28;20361;-75
2022/02/03 08:20:45;;;;;;;20.60;11.90;;;8.30;99.90;;;;;;5111912;28;20064;-77
2022/02/03 08:23:38;;;;;;;14.15;11.82;;;9.10;99.90;;;;;;5115520;27;20031;-76
2022/02/03 08:26:09;;;;;;;19.85;12.55;;;8.30;99.90;;;;;;5117791;27;20375;-76
2022/02/03 08:28:53;;;;;;;15.95;12.10;;;8.20;99.90;;;;;;5113123;27;20058;-74
2022/02/03 08:31:38;;;;;;;19.52;12.25;;;8.20;99.90;;;;;;5115099;27;20514;-76
2022/02/03 08:34:04;;;;;;;20.73;12.35;;;8.20;99.90;;;;;;5126151;27;20087;-76
2022/02/03 08:36:34;;;;;;;23.38;12.98;;;8.20;99.90;;;;;;5114475;27;20424;-76
2022/02/03 08:39:05;;;;;;;22.77;14.05;;;8.20;99.90;;;;;;5112869;28;20423;-76
2022/02/03 08:41:30;;;;;;;20.42;13.40;;;8.20;99.90;;;;;;5112015;28;20059;-75
2022/02/03 08:43:56;;;;;;;19.48;13.13;;;8.20;99.90;;;;;;5111812;28;20039;-77
2022/02/03 08:46:25;;;;;;;20.63;13.50;;;8.20;99.90;;;;;;5112154;28;20036;-75
2022/02/03 08:48:51;;;;;;;24.27;13.75;;;8.10;99.90;;;;;;5115969;27;20514;-74
2022/02/03 08:51:18;;;;;;;25.42;15.02;;;8.20;99.90;;;;;;5110414;28;20429;-74
2022/02/03 08:53:55;;;;;;;18.20;12.45;;;8.20;99.90;;;;;;5111762;28;20110;-76
2022/02/03 08:56:32;;;;;;;21.48;14.25;;;8.10;99.90;;;;;;5111634;28;20028;-76
2022/02/03 09:33:33;;;;;;;16.13;10.15;;;8.30;99.90;;;;;;5072165;28;20029;-75
2022/02/03 09:35:17;;;;;;;14.20;9.63;;;8.30;99.90;;;;;;5071836;28;20071;-75
2022/02/03 09:40:43;;;;;;;17.00;11.07;;;8.20;99.90;;;;;;5066140;28;20052;-75
2022/02/03 09:51:56;;;;;;;16.95;10.30;;;8.20;99.90;;;;;;5073104;28;20043;-76
2022/02/03 09:59:39;;;;;;;20.27;11.27;;;8.20;99.90;;;;;;5074332;28;20024;-76
2022/02/03 10:02:09;;;;;;;17.60;10.25;;;8.80;99.90;;;;;;5098449;28;20403;-76
2022/02/03 10:07:21;;;;;;;22.80;11.05;;;8.20;99.90;;;;;;5115961;28;20115;-76
2022/02/03 10:09:52;;;;;;;17.30;10.55;;;8.20;99.90;;;;;;5116582;28;20053;-75
2022/02/03 10:12:27;;;;;;;24.73;11.40;;;8.30;99.90;;;;;;5116734;28;20156;-75
2022/02/03 10:14:55;;;;;;;20.38;11.23;;;8.30;99.90;;;;;;5115390;28;20042;-76
2022/02/03 10:17:32;;;;;;;23.65;10.38;;;8.30;99.90;;;;;;5115605;28;20024;-76
2022/02/03 10:20:03;;;;;;;20.80;10.13;;;8.30;99.90;;;;;;5114209;27;20020;-76
2022/02/03 10:22:30;;;;;;;16.30;9.63;;;8.40;99.90;;;;;;5115982;27;20032;-75
2022/02/03 10:25:09;;;;;;;15.32;10.35;;;8.40;99.90;;;;;;5116239;28;20491;-75
2022/02/03 10:27:38;;;;;;;16.40;9.57;;;8.40;99.90;;;;;;5115379;28;20039;-75
2022/02/03 10:30:25;;;;;;;15.25;8.50;;;8.50;99.90;;;;;;5117377;27;20051;-75
2022/02/03 10:32:52;;;;;;;16.40;7.88;;;8.60;99.90;;;;;;5119462;27;20034;-76
2022/02/03 10:35:26;;;;;;;17.88;8.93;;;8.60;99.90;;;;;;5112510;28;20020;-75
2022/02/03 10:54:50;;;;;;;16.17;7.88;;;8.90;99.90;;;;;;5115802;27;20030;-75
2022/02/03 10:58:05;;;;;;;16.92;8.80;;;8.90;99.90;;;;;;5124425;27;20023;-75
2022/02/03 11:03:13;;;;;;;15.15;8.32;;;8.80;99.90;;;;;;5131304;27;20345;-74
2022/02/03 11:05:56;;;;;;;19.00;8.43;;;8.80;99.90;;;;;;5135053;27;20042;-74
2022/02/03 11:08:32;;;;;;;13.77;8.45;;;8.80;99.90;;;;;;5118305;27;20119;-75
2022/02/03 11:11:00;;;;;;;18.73;9.05;;;8.80;99.90;;;;;;5116962;27;20031;-75
2022/02/03 11:13:30;;;;;;;20.75;10.95;;;8.70;99.90;;;;;;5134708;27;20073;-75
2022/02/03 11:16:00;;;;;;;22.88;10.35;;;8.60;99.90;;;;;;5134653;27;20027;-75
2022/02/03 11:18:26;;;;;;;14.10;9.80;;;8.60;99.90;;;;;;5125189;27;20483;-77
2022/02/03 11:20:53;;;;;;;14.48;10.00;;;8.60;99.90;;;;;;5129146;27;20348;-76
2022/02/03 11:23:31;;;;;;;17.15;10.18;;;8.60;99.90;;;;;;5127718;27;20240;-75
2022/02/03 11:27:01;;;;;;;19.52;10.32;;;8.70;99.90;;;;;;5133758;27;20043;-76
2022/02/03 11:29:05;;;;;;;;;;;8.80;99.90;;;;;;5122558;27;20130;-76
2022/02/03 11:37:36;;;;;;;20.30;11.52;;;9.00;99.90;;;;;;5133068;27;20035;-76
2022/02/03 11:43:23;;;;;;;16.25;9.20;;;8.90;99.90;;;;;;5131603;27;20023;-76
2022/02/03 11:57:29;;;;;;;20.10;11.57;;;8.90;99.90;;;;;;5133943;27;20050;-74
2022/02/03 12:17:35;;;;;;;;;;;8.80;99.90;;;;;;5101943;27;20062;-74
2022/02/03 12:20:09;;;;;;;16.92;10.27;;;8.70;99.90;;;;;;5131690;27;19955;-76
2022/02/03 12:22:48;;;;;;;19.02;10.32;;;8.70;99.90;;;;;;5131604;27;20088;-76
2022/02/03 12:25:27;;;;;;;18.45;10.13;;;8.70;99.90;;;;;;5131758;27;20050;-76
2022/02/03 12:28:33;;;;;;;16.85;10.57;;;8.70;99.90;;;;;;5132186;27;20508;-75
2022/02/03 12:38:57;;;;;;;13.60;8.52;;;8.70;99.90;;;;;;5132422;27;20357;-75
2022/02/03 12:41:35;;;;;;;22.50;9.60;;;8.70;99.90;;;;;;5131129;27;20095;-75
2022/02/03 12:44:04;;;;;;;16.02;9.35;;;8.50;99.90;;;;;;5127364;27;20079;-75
2022/02/03 12:46:31;;;;;;;22.60;10.45;;;8.60;99.90;;;;;;5123724;27;20043;-75
2022/02/03 12:48:58;;;;;;;17.77;10.57;;;8.50;99.90;;;;;;5117085;27;20107;-74
2022/02/03 12:51:24;;;;;;;16.50;9.68;;;8.50;99.90;;;;;;5124345;27;20046;-74
2022/02/03 12:53:50;;;;;;;15.20;9.73;;;8.50;99.90;;;;;;5131391;27;20019;-74
2022/02/03 12:56:22;;;;;;;20.15;10.65;;;8.40;99.90;;;;;;5127690;27;20110;-75
2022/02/03 12:58:52;;;;;;;17.65;9.25;;;8.40;99.90;;;;;;5131366;27;20019;-75
2022/02/03 13:01:28;;;;;;;27.13;10.60;;;8.40;99.90;;;;;;5130996;27;20075;-75
2022/02/03 13:03:54;;;;;;;19.52;12.27;;;8.30;99.90;;;;;;5130592;27;20454;-75
2022/02/03 13:06:24;;;;;;;22.73;10.27;;;8.30;99.90;;;;;;5126742;27;20038;-74
2022/02/03 13:08:56;;;;;;;15.60;9.13;;;8.30;99.90;;;;;;5123390;28;20023;-75
2022/02/03 13:11:40;;;;;;;21.48;10.25;;;8.30;99.90;;;;;;5130857;27;20124;-74
2022/02/03 13:16:35;;;;;;;16.60;10.10;;;8.40;99.90;;;;;;5131287;28;20031;-74
2022/02/03 13:19:18;;;;;;;17.58;9.60;;;8.40;99.90;;;;;;5127999;27;20027;-76
2022/02/03 13:22:10;;;;;;;18.63;9.77;;;8.40;99.90;;;;;;5119891;28;20030;-74
2022/02/03 13:27:16;;;;;;;17.77;9.43;;;8.40;99.90;;;;;;5117228;27;20032;-74
2022/02/03 13:30:08;;;;;;;16.98;9.02;;;8.40;99.90;;;;;;5113739;28;20047;-74
2022/02/03 13:32:48;;;;;;;15.25;9.68;;;8.40;99.90;;;;;;5131996;27;20363;-75
2022/02/03 13:35:25;;;;;;;21.73;10.43;;;8.40;99.90;;;;;;5119295;27;20031;-76
2022/02/03 13:38:04;;;;;;;23.98;9.43;;;8.40;99.90;;;;;;5114947;27;20035;-75
2022/02/03 13:40:30;;;;;;;16.40;9.38;;;8.40;99.90;;;;;;5134315;27;20027;-73
2022/02/03 13:43:07;;;;;;;12.80;8.05;;;8.40;99.90;;;;;;5116121;27;20462;-76
2022/02/03 13:45:34;;;;;;;13.10;8.48;;;8.40;99.90;;;;;;5116092;28;20413;-75
2022/02/03 13:48:02;;;;;;;11.05;7.47;;;8.40;99.90;;;;;;5126930;27;20107;-74
2022/02/03 13:50:30;;;;;;;11.68;7.90;;;8.40;99.90;;;;;;5136474;27;20131;-73
2022/02/03 13:53:12;;;;;;;12.95;8.43;;;8.30;99.90;;;;;;5127548;27;20034;-75
2022/02/03 14:18:35;;;;;;;12.50;7.70;;;8.40;99.90;;;;;;5123882;27;20362;-74
2022/02/03 14:21:02;;;;;;;13.73;9.02;;;8.40;99.90;;;;;;5121604;27;20027;-75
2022/02/03 14:28:39;;;;;;;22.90;11.45;;;8.50;99.90;;;;;;5114597;28;20057;-73
2022/02/03 14:31:08;;;;;;;23.23;10.95;;;8.50;99.90;;;;;;5116235;28;20064;-74
2022/02/03 14:33:40;;;;;;;14.48;10.40;;;8.50;99.90;;;;;;5115854;28;20435;-74
2022/02/03 14:36:10;;;;;;;15.63;10.05;;;8.50;99.90;;;;;;5114971;28;20098;-74
2022/02/03 14:41:29;;;;;;;12.82;9.07;;;8.50;99.90;;;;;;5114864;28;20028;-74
2022/02/03 14:43:59;;;;;;;15.38;9.32;;;8.50;99.90;;;;;;5115487;28;20038;-74
2022/02/03 14:46:25;;;;;;;17.77;9.40;;;8.50;99.90;;;;;;5114933;28;20048;-74
2022/02/03 14:48:51;;;;;;;12.93;9.57;;;8.50;99.90;;;;;;5115322;28;20066;-74
2022/02/03 14:51:22;;;;;;;12.73;9.65;;;8.50;99.90;;;;;;5115201;28;20482;-74
2022/02/03 14:53:55;;;;;;;14.15;8.57;;;8.50;99.90;;;;;;5115442;28;20031;-74
2022/02/03 14:59:06;;;;;;;14.93;8.68;;;8.50;99.90;;;;;;5116284;28;20038;-74
2022/02/03 15:01:32;;;;;;;13.82;8.18;;;8.50;99.90;;;;;;5115504;28;20048;-73
2022/02/03 15:04:04;;;;;;;15.27;9.50;;;7.80;99.90;;;;;;5116637;28;20035;-74
2022/02/03 15:06:42;;;;;;;15.38;9.65;;;8.50;99.90;;;;;;5115104;28;20043;-73
2022/02/03 15:09:30;;;;;;;15.90;9.30;;;8.50;99.90;;;;;;5113912;28;20031;-76
2022/02/03 15:12:01;;;;;;;14.32;9.70;;;8.50;99.90;;;;;;5114888;28;20039;-76
2022/02/03 15:14:26;;;;;;;;;;;8.50;99.90;;;;;;5114925;28;20024;-73
2022/02/03 15:16:53;;;;;;;14.15;8.48;;;8.50;99.90;;;;;;5113873;28;19911;-74
2022/02/03 15:19:19;;;;;;;13.68;9.48;;;8.50;99.90;;;;;;5114239;28;20458;-73
2022/02/03 15:21:44;;;;;;;17.65;9.50;;;8.50;99.90;;;;;;5114645;28;20020;-74
2022/02/03 15:24:10;;;;;;;11.40;8.98;;;8.50;99.90;;;;;;5113687;28;20020;-74
2022/02/03 15:26:37;;;;;;;17.42;9.35;;;8.40;99.90;;;;;;5114463;28;20514;-71
2022/02/03 15:29:02;;;;;;;12.88;9.32;;;8.40;99.90;;;;;;5122316;27;20031;-74
2022/02/03 15:31:31;;;;;;;19.00;9.43;;;8.40;99.90;;;;;;5133915;27;20031;-75
2022/02/03 15:34:05;;;;;;;10.95;9.27;;;8.40;99.90;;;;;;5135267;27;20037;-74
2022/02/03 15:36:33;;;;;;;14.00;9.90;;;8.40;99.90;;;;;;5134821;27;20110;-74
2022/02/03 15:38:58;;;;;;;13.75;9.32;;;8.40;99.90;;;;;;5128734;27;20023;-76
2022/02/03 15:41:27;;;;;;;13.00;8.43;;;8.40;99.90;;;;;;5115127;27;20023;-74
2022/02/03 15:43:55;;;;;;;11.73;8.25;;;8.40;99.90;;;;;;5112612;27;20499;-75
2022/02/03 15:46:23;;;;;;;14.18;11.07;;;8.40;99.90;;;;;;5118963;27;20039;-74
2022/02/03 15:49:03;;;;;;;18.83;9.68;;;8.30;99.90;;;;;;5129778;27;20384;-75
2022/02/03 15:57:05;;;;;;;11.60;8.48;;;8.40;99.90;;;;;;5121781;27;20073;-75
2022/02/03 16:13:33;;;;;;;14.23;9.35;;;8.30;99.90;;;;;;5130955;27;20049;-76
2022/02/03 16:18:44;;;;;;;11.15;9.93;;;8.20;99.90;;;;;;5116582;27;20546;-76
2022/02/03 16:21:26;;;;;;;12.05;9.18;;;8.20;99.90;;;;;;5112390;27;20110;-76
2022/02/03 16:51:56;;;;;;;18.90;11.00;;;8.20;99.90;;;;;;5109104;27;20042;-74
2022/02/03 16:54:21;;;;;;;15.02;9.95;;;8.90;99.90;;;;;;5111244;28;20055;-75
2022/02/03 16:56:51;;;;;;;12.88;9.90;;;8.20;99.90;;;;;;5113511;27;20023;-76
2022/02/03 16:59:18;;;;;;;15.43;10.65;;;8.20;99.90;;;;;;5115317;27;20462;-74
2022/02/03 17:01:44;;;;;;;14.80;10.57;;;8.20;99.90;;;;;;5119009;27;20035;-74
2022/02/03 17:04:17;;;;;;;14.27;10.82;;;8.20;99.90;;;;;;5114972;28;20024;-74
2022/02/03 17:06:46;;;;;;;11.30;9.88;;;8.20;99.90;;;;;;5114043;28;20490;-74
2022/02/03 17:09:12;;;;;;;13.02;9.85;;;8.20;99.90;;;;;;5113847;28;20391;-75
2022/02/03 17:11:38;;;;;;;19.13;10.60;;;8.20;99.90;;;;;;5113729;28;20031;-75
2022/02/03 17:14:03;;;;;;;13.38;9.70;;;8.20;99.90;;;;;;5113551;28;20023;-75
2022/02/03 17:16:29;;;;;;;17.98;10.98;;;8.20;99.90;;;;;;5112524;28;20043;-75
2022/02/03 17:18:57;;;;;;;12.55;10.23;;;8.20;99.90;;;;;;5113594;28;20027;-76
2022/02/03 17:21:26;;;;;;;18.08;11.15;;;8.20;99.90;;;;;;5114078;28;20034;-74
2022/02/03 17:23:52;;;;;;;12.48;10.85;;;8.20;99.90;;;;;;5113341;28;20024;-73
2022/02/03 17:26:25;;;;;;;14.77;11.85;;;8.20;99.90;;;;;;5113078;28;20077;-76
2022/02/03 17:29:04;;;;;;;13.43;9.80;;;8.20;99.90;;;;;;5113431;28;20036;-73
2022/02/03 17:31:53;;;;;;;17.17;10.60;;;8.20;99.90;;;;;;5110765;28;20035;-73
2022/02/03 18:04:28;;;;;;;13.57;11.18;;;8.00;99.90;;;;;;5131261;27;20492;-75
2022/02/03 18:25:49;;;;;;;14.98;12.10;;;8.10;99.90;;;;;;5133525;27;20068;-75
2022/02/03 18:31:28;;;;;;;16.30;11.88;;;8.10;99.90;;;;;;5135227;27;20042;-76
2022/02/03 18:50:01;;;;;;;18.58;13.85;;;8.10;99.90;;;;;;5135054;27;20293;-76
2022/02/03 18:57:48;;;;;;;19.63;12.93;;;8.00;99.90;;;;;;5128663;27;20034;-76
2022/02/03 19:12:21;;;;;;;21.08;14.70;;;8.00;99.90;;;;;;5125488;27;20038;-76
2022/02/03 20:03:24;;;;;;;31.65;19.40;;;8.10;99.90;;;;;;5092024;28;20181;-76
2022/02/03 20:05:42;;;;;;;28.27;17.85;;;8.10;99.90;;;;;;5124742;27;20023;-77
2022/02/03 20:08:21;;;;;;;29.30;18.80;;;8.00;99.90;;;;;;5126016;27;20039;-76
2022/02/03 20:10:49;;;;;;;33.35;18.85;;;8.10;99.90;;;;;;5134216;27;20019;-76
2022/02/03 20:13:15;;;;;;;27.75;18.45;;;8.10;99.90;;;;;;5133885;27;20030;-77
2022/02/03 20:15:41;;;;;;;27.30;17.40;;;8.10;99.90;;;;;;5134929;27;20020;-76
2022/02/03 20:18:12;;;;;;;32.30;18.90;;;8.00;99.90;;;;;;5133632;27;20027;-75
2022/02/03 20:20:42;;;;;;;27.27;17.55;;;8.00;99.90;;;;;;5134271;27;20027;-75
2022/02/03 20:23:10;;;;;;;29.35;16.83;;;8.00;99.90;;;;;;5134840;27;20023;-76
2022/02/03 20:25:41;;;;;;;30.80;19.05;;;8.00;99.90;;;;;;5134082;27;20411;-76
2022/02/03 20:28:08;;;;;;;29.63;17.63;;;8.00;99.90;;;;;;5134166;27;20148;-75
2022/02/03 20:30:34;;;;;;;27.05;18.55;;;8.00;99.90;;;;;;5134845;27;20091;-77
2022/02/03 20:33:00;;;;;;;27.70;18.33;;;8.10;99.90;;;;;;5131310;27;20031;-77
2022/02/03 20:35:26;;;;;;;28.33;18.02;;;8.00;99.90;;;;;;5113153;28;20030;-76
2022/02/03 20:37:51;;;;;;;32.30;18.10;;;8.00;99.90;;;;;;5114121;28;20051;-76
2022/02/03 20:40:17;;;;;;;26.35;17.25;;;8.00;99.90;;;;;;5112709;28;20466;-76
2022/02/03 20:42:43;;;;;;;27.95;18.17;;;8.10;99.90;;;;;;5113619;28;20126;-77
2022/02/03 20:45:09;;;;;;;26.67;17.30;;;8.00;99.90;;;;;;5113747;28;20474;-76
2022/02/03 20:47:35;;;;;;;24.73;16.92;;;8.00;99.90;;;;;;5113526;28;20035;-76
2022/02/03 20:50:03;;;;;;;27.10;18.15;;;8.10;99.90;;;;;;5112961;28;20023;-77
2022/02/03 20:52:29;;;;;;;25.40;17.60;;;8.00;99.90;;;;;;5114153;28;20038;-77
2022/02/03 20:54:54;;;;;;;27.25;17.60;;;8.00;99.90;;;;;;5112595;28;20023;-76
2022/02/03 20:57:20;;;;;;;29.40;17.60;;;8.00;99.90;;;;;;5113136;28;20028;-77
2022/02/03 21:02:21;;;;;;;27.00;17.45;;;8.00;99.90;;;;;;5112519;28;20063;-76
2022/02/03 21:05:12;;;;;;;26.80;17.20;;;8.00;99.90;;;;;;5113898;28;20048;-77
2022/02/03 21:07:38;;;;;;;25.67;16.55;;;8.00;99.90;;;;;;5112678;28;20032;-77
2022/02/03 21:10:07;;;;;;;28.95;17.38;;;8.00;99.90;;;;;;5113340;28;20072;-77
2022/02/03 21:12:33;;;;;;;25.52;16.00;;;8.00;99.90;;;;;;5113115;28;20420;-76
2022/02/03 21:15:05;;;;;;;25.17;16.35;;;8.10;99.90;;;;;;5112538;28;20023;-76
2022/02/03 21:17:32;;;;;;;24.45;16.23;;;8.10;99.90;;;;;;5113338;28;20110;-76
2022/02/03 21:20:07;;;;;;;26.80;16.75;;;8.10;99.90;;;;;;5113835;28;20058;-76
2022/02/03 21:22:37;;;;;;;23.02;15.95;;;8.00;99.90;;;;;;5119445;28;20101;-76
2022/02/03 21:27:52;;;;;;;23.02;15.40;;;8.10;99.90;;;;;;5120835;28;20393;-75
2022/02/03 21:30:18;;;;;;;24.02;16.25;;;8.10;99.90;;;;;;5117282;28;20020;-76
2022/02/03 21:32:44;;;;;;;23.90;15.48;;;8.00;99.90;;;;;;5120843;28;20019;-76
2022/02/03 21:35:10;;;;;;;23.02;15.63;;;8.10;99.90;;;;;;5124649;28;20114;-78
2022/02/03 21:37:37;;;;;;;20.02;14.18;;;8.10;99.90;;;;;;5120025;27;20015;-76
2022/02/03 21:40:12;;;;;;;23.80;14.77;;;8.10;99.90;;;;;;5123240;28;20351;-77
2022/02/03 21:42:38;;;;;;;23.23;15.63;;;8.10;99.90;;;;;;5122857;28;20067;-78
2022/02/03 21:45:06;;;;;;;23.17;15.15;;;8.10;99.90;;;;;;5120503;28;20103;-74
2022/02/03 21:47:31;;;;;;;27.02;16.50;;;8.10;99.90;;;;;;5120662;27;20036;-77
2022/02/03 21:50:00;;;;;;;22.50;15.57;;;8.20;99.90;;;;;;5127414;27;20020;-77
2022/02/03 21:52:37;;;;;;;23.83;14.93;;;8.10;99.90;;;;;;5122965;27;20023;-77
2022/02/03 21:55:05;;;;;;;23.55;15.90;;;8.10;99.90;;;;;;5125858;27;20077;-76
2022/02/03 21:57:31;;;;;;;24.48;15.93;;;8.00;99.90;;;;;;5125246;27;20467;-77
2022/02/03 21:59:57;;;;;;;22.38;15.38;;;8.10;99.90;;;;;;5125783;27;20027;-75
2022/02/03 22:02:23;;;;;;;23.15;14.32;;;8.10;99.90;;;;;;5127538;27;20047;-76
2022/02/03 22:04:49;;;;;;;28.30;16.38;;;8.10;99.90;;;;;;5125738;27;20087;-77
2022/02/03 22:07:15;;;;;;;24.42;15.40;;;8.10;99.90;;;;;;5125453;27;20035;-76
2022/02/03 22:09:40;;;;;;;27.83;16.10;;;8.00;99.90;;;;;;5124743;27;20015;-76
2022/02/03 22:12:07;;;;;;;23.65;15.32;;;8.00;99.90;;;;;;5124204;27;20462;-78
2022/02/03 22:14:33;;;;;;;23.55;16.13;;;8.10;99.90;;;;;;5128552;27;20028;-76
2022/02/03 22:17:01;;;;;;;23.85;15.75;;;8.10;99.90;;;;;;5128163;27;20030;-74
2022/02/03 22:19:28;;;;;;;25.35;16.77;;;8.10;99.90;;;;;;5123701;27;20152;-75
2022/02/03 22:25:18;;;;;;;25.35;16.50;;;8.00;99.90;;;;;;5124184;27;20047;-76
2022/02/03 22:44:05;;;;;;;28.65;16.58;;;8.10;99.90;;;;;;5113438;28;20500;-77
2022/02/03 22:49:04;;;;;;;24.52;16.63;;;8.20;99.90;;;;;;5115254;28;20368;-77
2022/02/03 22:51:32;;;;;;;24.90;17.85;;;8.20;99.90;;;;;;5115792;28;20043;-77
2022/02/03 22:53:58;;;;;;;27.67;18.40;;;8.20;99.90;;;;;;5115294;28;20103;-77
2022/02/03 22:56:24;;;;;;;26.90;17.65;;;8.20;99.90;;;;;;5116177;28;20509;-77
2022/02/03 23:01:18;;;;;;;23.52;17.48;;;8.20;99.90;;;;;;5114928;28;20049;-76
2022/02/03 23:03:44;;;;;;;24.00;17.48;;;8.20;99.90;;;;;;5115801;28;20119;-76
2022/02/03 23:06:15;;;;;;;28.13;18.23;;;8.30;99.90;;;;;;5115030;28;20424;-74
2022/02/03 23:11:50;;;;;;;27.02;16.55;;;8.30;99.90;;;;;;5115317;28;19910;-74
2022/02/03 23:14:23;;;;;;;23.00;16.73;;;8.50;99.90;;;;;;5114657;28;20072;-75
2022/02/03 23:17:06;;;;;;;30.25;18.70;;;8.30;99.90;;;;;;5115189;28;20051;-75
2022/02/03 23:22:14;;;;;;;25.35;17.30;;;8.30;99.90;;;;;;5114128;28;20111;-75
2022/02/03 23:24:42;;;;;;;31.23;18.25;;;8.30;99.90;;;;;;5115305;28;20032;-75
2022/02/03 23:27:39;;;;;;;27.33;17.25;;;8.30;99.90;;;;;;5114222;28;20471;-75
2022/02/03 23:30:05;;;;;;;31.60;17.95;;;8.30;99.90;;;;;;5114291;28;20042;-76
2022/02/03 23:32:31;;;;;;;26.00;17.75;;;8.30;99.90;;;;;;5114541;28;20134;-76
2022/02/03 23:35:10;;;;;;;27.67;18.55;;;8.30;99.90;;;;;;5114265;28;20092;-77
2022/02/03 23:37:39;;;;;;;29.33;18.05;;;8.30;99.90;;;;;;5115222;28;20028;-76
2022/02/03 23:40:14;;;;;;;31.30;17.40;;;8.30;99.90;;;;;;5115073;28;20102;-76
2022/02/03 23:46:05;;;;;;;25.48;16.98;;;8.30;99.90;;;;;;5115120;28;20031;-77
2022/02/03 23:51:05;;;;;;;24.73;17.77;;;8.30;99.90;;;;;;5114208;28;20024;-77
